Time;durP1;ratioP1;P1;durP2;ratioP2;P2;SDS_P1;SDS_P2;PMS_P1;PMS_P2;Temp;Humidity;BMP_temperature;BMP_pressure;BME280_temperature;BME280_humidity;BME280_pressure;Samples;Min_cycle;Max_cycle;Signal;HPM_P1;HPM_P2
2024/02/25 00:01:55;;;;;;;9.95;4.50;;;;;;;1.81;76.68;97644.22;4944672;28;105354;-64
2024/02/25 00:04:23;;;;;;;10.30;4.43;;;;;;;1.72;77.36;97653.69;4942758;28;105422;-64
2024/02/25 00:06:51;;;;;;;8.07;4.35;;;;;;;1.74;77.92;97649.16;4940464;28;102674;-64
2024/02/25 00:09:20;;;;;;;12.18;4.13;;;;;;;1.80;77.08;97651.19;4951792;28;102770;-64
2024/02/25 00:11:48;;;;;;;7.65;3.80;;;;;;;1.51;76.97;97653.81;4942344;28;103352;-64
2024/02/25 00:14:20;;;;;;;9.68;3.83;;;;;;;1.53;77.18;97654.50;4955256;28;103664;-65
2024/02/25 00:16:48;;;;;;;7.53;3.75;;;;;;;1.71;77.48;97659.88;4964171;28;103231;-64
2024/02/25 00:19:18;;;;;;;7.03;3.33;;;;;;;1.78;76.27;97666.19;4953721;28;103749;-64
2024/02/25 00:21:46;;;;;;;9.68;4.13;;;;;;;1.76;76.11;97668.13;4952466;28;103244;-64
2024/02/25 00:24:17;;;;;;;7.30;3.38;;;;;;;1.49;76.00;97669.63;4935789;28;105591;-63
2024/02/25 00:26:45;;;;;;;5.70;3.05;;;;;;;1.65;75.96;97669.06;4958607;28;103228;-64
2024/02/25 00:29:15;;;;;;;6.25;3.22;;;;;;;1.74;75.68;97667.44;4958062;28;103611;-64
2024/02/25 00:31:44;;;;;;;6.50;2.80;;;;;;;1.77;74.83;97672.38;4933630;28;103576;-64
2024/02/25 00:34:12;;;;;;;9.90;4.05;;;;;;;1.38;75.92;97682.78;4932346;28;106639;-64
2024/02/25 00:36:42;;;;;;;13.25;5.03;;;;;;;1.44;77.04;97673.59;4962565;28;102842;-64
2024/02/25 00:39:11;;;;;;;13.30;6.00;;;;;;;1.44;76.98;97661.38;4947984;28;102699;-64
2024/02/25 00:41:39;;;;;;;11.73;5.18;;;;;;;1.68;76.26;97675.81;4945785;28;103523;-63
2024/02/25 00:44:07;;;;;;;12.30;5.57;;;;;;;1.44;75.79;97671.81;4940155;28;106498;-63
2024/02/25 00:46:36;;;;;;;13.43;5.57;;;;;;;1.37;76.20;97675.09;4962184;28;102722;-63
2024/02/25 00:49:04;;;;;;;12.75;5.57;;;;;;;1.32;76.33;97673.72;4928948;28;102720;-63
2024/02/25 00:51:32;;;;;;;11.88;5.60;;;;;;;1.15;77.51;97666.53;4950275;28;106073;-62
2024/02/25 00:54:02;;;;;;;12.18;6.10;;;;;;;1.26;77.93;97670.84;4959224;28;105620;-63
2024/02/25 00:56:31;;;;;;;11.05;5.78;;;;;;;1.32;77.70;97662.44;4959186;28;102895;-63
2024/02/25 00:59:00;;;;;;;13.32;5.53;;;;;;;1.38;78.49;97674.97;4953508;28;103772;-63
2024/02/25 01:01:28;;;;;;;9.98;5.13;;;;;;;1.54;77.55;97671.00;4951346;28;104178;-63
2024/02/25 01:03:56;;;;;;;14.60;5.72;;;;;;;1.52;77.36;97663.31;4951947;28;107589;-62
2024/02/25 01:06:25;;;;;;;11.43;5.07;;;;;;;1.51;77.66;97661.66;4958024;28;102646;-62
2024/02/25 01:08:53;;;;;;;10.20;4.95;;;;;;;1.35;78.89;97659.59;4953106;28;103006;-63
2024/02/25 01:11:23;;;;;;;9.75;4.95;;;;;;;1.35;79.53;97656.97;4955628;28;103519;-62
2024/02/25 01:13:51;;;;;;;9.40;4.85;;;;;;;1.28;79.98;97661.88;4935876;28;106301;-62
2024/02/25 01:16:20;;;;;;;9.25;4.82;;;;;;;1.31;78.92;97655.56;4937787;28;102815;-62
2024/02/25 01:18:48;;;;;;;8.43;4.95;;;;;;;1.33;79.17;97651.06;4961895;28;102871;-63
2024/02/25 01:21:17;;;;;;;8.65;4.18;;;;;;;1.29;79.18;97644.47;4960556;28;105706;-62
2024/02/25 01:23:46;;;;;;;9.25;4.60;;;;;;;1.37;78.77;97647.22;4962654;28;103199;-65
2024/02/25 01:26:14;;;;;;;10.60;3.72;;;;;;;1.46;77.68;97648.19;4956643;28;105435;-62
2024/02/25 01:28:44;;;;;;;9.68;4.07;;;;;;;1.48;77.42;97639.25;4951209;28;102692;-62
2024/02/25 01:31:12;;;;;;;7.97;3.33;;;;;;;1.52;76.51;97650.25;4954832;28;103461;-63
2024/02/25 01:33:40;;;;;;;7.50;3.30;;;;;;;1.48;76.58;97652.31;4947716;28;104413;-62
2024/02/25 01:36:08;;;;;;;8.63;4.15;;;;;;;1.55;76.56;97651.78;4950588;28;103811;-60
2024/02/25 01:38:36;;;;;;;8.93;4.63;;;;;;;1.23;76.50;97652.81;4951832;28;102613;-60
2024/02/25 01:41:05;;;;;;;7.50;3.67;;;;;;;1.28;76.23;97645.41;4951528;28;103522;-61
2024/02/25 01:43:39;;;;;;;8.05;4.45;;;;;;;1.36;76.38;97645.56;4959013;28;103197;-60
2024/02/25 01:46:10;;;;;;;8.55;4.40;;;;;;;1.09;76.28;97638.41;4952447;28;102730;-61
2024/02/25 01:48:38;;;;;;;9.23;4.70;;;;;;;0.87;78.39;97634.22;4956818;28;102664;-61
2024/02/25 01:51:07;;;;;;;12.70;4.88;;;;;;;0.77;78.54;97636.78;4955998;28;104029;-61
2024/02/25 01:53:36;;;;;;;9.43;4.70;;;;;;;0.59;79.10;97634.81;4944018;28;104486;-61
2024/02/25 01:56:06;;;;;;;8.48;4.75;;;;;;;0.55;79.42;97633.44;4960983;28;104376;-61
2024/02/25 01:58:34;;;;;;;9.90;5.22;;;;;;;0.38;80.27;97632.25;4957345;28;104374;-62
2024/02/25 02:01:03;;;;;;;10.35;4.47;;;;;;;0.42;81.33;97638.84;4944352;28;104429;-61
2024/02/25 02:03:33;;;;;;;8.77;4.30;;;;;;;0.79;80.73;97634.88;4937037;28;105759;-61
2024/02/25 02:06:01;;;;;;;9.98;5.20;;;;;;;0.94;80.15;97628.34;4961366;28;103067;-61
2024/02/25 02:08:32;;;;;;;8.15;4.28;;;;;;;1.05;79.15;97614.38;4964110;28;102653;-61
2024/02/25 02:11:14;;;;;;;7.88;3.85;;;;;;;1.20;78.78;97616.59;4957071;28;103451;-62
2024/02/25 02:13:43;;;;;;;7.50;3.50;;;;;;;1.28;78.31;97614.94;4957278;28;103536;-61
2024/02/25 02:16:13;;;;;;;8.88;3.95;;;;;;;1.33;77.95;97617.94;4956811;28;102810;-62
2024/02/25 02:18:44;;;;;;;8.77;4.75;;;;;;;1.31;78.17;97619.03;4958987;28;102764;-62
2024/02/25 02:21:17;;;;;;;8.77;3.80;;;;;;;1.38;77.27;97620.16;4946595;28;103714;-63
2024/02/25 02:23:45;;;;;;;9.43;4.72;;;;;;;1.19;78.04;97612.31;4963690;28;103338;-63
2024/02/25 02:26:14;;;;;;;7.30;3.65;;;;;;;1.24;78.53;97607.53;4957825;28;103796;-63
2024/02/25 02:28:42;;;;;;;7.63;4.30;;;;;;;1.09;78.83;97607.91;4948049;28;104418;-63
2024/02/25 02:31:10;;;;;;;6.70;3.47;;;;;;;1.13;78.53;97601.47;4954406;28;104195;-61
2024/02/25 02:33:39;;;;;;;7.60;3.50;;;;;;;1.19;78.22;97597.47;4950714;28;103852;-61
2024/02/25 02:36:10;;;;;;;5.80;3.15;;;;;;;1.26;77.96;97600.41;4935436;28;103231;-62
2024/02/25 02:38:39;;;;;;;8.68;4.60;;;;;;;1.25;77.61;97599.56;4943651;28;103114;-61
2024/02/25 02:41:08;;;;;;;6.97;3.28;;;;;;;1.25;77.44;97599.56;4939483;28;105498;-61
2024/02/25 02:43:36;;;;;;;6.65;3.17;;;;;;;1.33;77.22;97597.09;4965546;28;103146;-62
2024/02/25 02:46:11;;;;;;;8.73;4.18;;;;;;;1.35;76.96;97598.72;4961252;28;104008;-61
2024/02/25 02:48:39;;;;;;;5.90;2.97;;;;;;;1.36;76.78;97595.16;4963162;28;102837;-63
2024/02/25 02:51:09;;;;;;;9.40;4.28;;;;;;;1.35;76.21;97589.16;4954952;28;103185;-63
2024/02/25 02:53:39;;;;;;;6.65;3.13;;;;;;;1.29;76.71;97589.69;4958667;28;103797;-62
2024/02/25 02:56:07;;;;;;;7.15;3.47;;;;;;;1.28;76.65;97593.25;4955588;28;103241;-63
2024/02/25 02:58:37;;;;;;;6.68;3.25;;;;;;;1.33;76.85;97585.84;4960133;28;102971;-63
2024/02/25 03:01:05;;;;;;;5.95;3.22;;;;;;;1.37;76.85;97581.16;4951780;28;103767;-63
2024/02/25 03:03:33;;;;;;;7.75;3.38;;;;;;;1.42;76.96;97584.19;4953340;28;103278;-63
2024/02/25 03:06:02;;;;;;;5.78;2.97;;;;;;;1.47;76.67;97580.19;4947440;28;102857;-62
2024/02/25 03:08:32;;;;;;;7.40;3.20;;;;;;;1.49;76.58;97586.13;4961414;28;102689;-63
2024/02/25 03:11:02;;;;;;;5.20;2.90;;;;;;;1.55;76.90;97583.91;4952082;28;103312;-63
2024/02/25 03:13:30;;;;;;;6.07;3.17;;;;;;;1.58;77.17;97578.41;4960390;28;103140;-62
2024/02/25 03:15:59;;;;;;;14.63;3.30;;;;;;;1.61;77.00;97575.50;4953781;28;103130;-63
2024/02/25 03:18:28;;;;;;;6.47;3.15;;;;;;;1.63;76.59;97576.22;4967079;28;103724;-63
2024/02/25 03:20:57;;;;;;;6.45;3.20;;;;;;;1.65;77.03;97575.13;4945171;28;104370;-63
2024/02/25 03:23:26;;;;;;;5.90;3.22;;;;;;;1.66;76.63;97570.69;4953230;28;103632;-63
2024/02/25 03:25:54;;;;;;;5.68;3.10;;;;;;;1.66;76.60;97568.09;4951712;28;102653;-61
2024/02/25 03:28:24;;;;;;;6.25;3.35;;;;;;;1.69;76.97;97570.44;4961288;28;103373;-61
2024/02/25 03:30:52;;;;;;;6.88;2.83;;;;;;;1.66;77.39;97570.69;4951960;28;103299;-61
2024/02/25 03:33:21;;;;;;;7.32;2.47;;;;;;;1.75;76.73;97564.63;4932973;28;103725;-61
2024/02/25 03:35:49;;;;;;;6.18;2.70;;;;;;;1.77;76.30;97560.13;4958607;28;102681;-61
2024/02/25 03:38:17;;;;;;;5.20;2.70;;;;;;;1.75;76.68;97569.88;4956373;28;103148;-61
2024/02/25 03:40:46;;;;;;;5.30;3.03;;;;;;;1.71;76.55;97565.88;4959498;28;103278;-62
2024/02/25 03:43:14;;;;;;;8.30;2.88;;;;;;;1.63;76.99;97561.38;4951576;28;104436;-62
2024/02/25 03:45:44;;;;;;;5.55;3.05;;;;;;;1.64;77.16;97568.25;4957084;28;102798;-62
2024/02/25 03:48:13;;;;;;;5.15;2.90;;;;;;;1.65;77.28;97569.91;4964116;28;102888;-62
2024/02/25 03:50:42;;;;;;;6.15;3.05;;;;;;;1.68;77.08;97574.00;4947164;28;105800;-62
2024/02/25 03:53:11;;;;;;;5.35;2.70;;;;;;;1.71;76.83;97568.50;4937648;28;103399;-62
2024/02/25 03:55:41;;;;;;;6.15;2.92;;;;;;;1.58;77.21;97570.59;4951431;28;102661;-62
2024/02/25 03:58:09;;;;;;;4.95;2.85;;;;;;;1.61;77.53;97570.28;4953971;28;102710;-62
2024/02/25 04:00:37;;;;;;;6.57;3.03;;;;;;;1.62;77.75;97564.13;4954393;28;103095;-63
2024/02/25 04:03:07;;;;;;;6.68;3.03;;;;;;;1.68;77.16;97557.50;4961729;28;103198;-62
2024/02/25 04:05:42;;;;;;;3.78;2.50;;;;;;;1.74;76.66;97547.34;4953633;28;102625;-62
2024/02/25 04:08:11;;;;;;;6.78;2.45;;;;;;;1.74;76.20;97542.13;4951325;28;102823;-62
2024/02/25 04:10:39;;;;;;;5.82;2.83;;;;;;;1.70;76.43;97551.19;4961485;28;103556;-62
2024/02/25 04:13:07;;;;;;;5.03;2.42;;;;;;;1.76;76.19;97544.59;4954983;28;105624;-62
2024/02/25 04:15:36;;;;;;;4.68;2.70;;;;;;;1.79;76.47;97544.31;4937868;28;102620;-62
2024/02/25 04:18:05;;;;;;;7.03;3.40;;;;;;;1.78;76.23;97542.66;4952631;28;102668;-62
2024/02/25 04:20:36;;;;;;;5.70;2.97;;;;;;;1.73;76.02;97545.69;4962735;28;104063;-62
2024/02/25 04:23:04;;;;;;;6.05;2.45;;;;;;;1.77;75.86;97541.84;4956787;28;103196;-62
2024/02/25 04:25:35;;;;;;;5.93;2.35;;;;;;;1.80;75.55;97538.94;4956392;28;102807;-62
2024/02/25 04:28:03;;;;;;;7.18;3.35;;;;;;;1.71;76.22;97541.59;4961131;28;102628;-62
2024/02/25 04:30:31;;;;;;;4.55;2.20;;;;;;;1.74;76.52;97552.56;4947769;28;103236;-62
2024/02/25 04:32:59;;;;;;;4.88;2.83;;;;;;;1.72;76.31;97554.50;4947541;28;105387;-62
2024/02/25 04:35:27;;;;;;;6.32;2.80;;;;;;;1.73;76.29;97545.69;4958325;28;103232;-62
2024/02/25 04:37:57;;;;;;;4.22;2.40;;;;;;;1.74;76.20;97549.97;4954137;28;102731;-62
2024/02/25 04:40:26;;;;;;;4.95;2.20;;;;;;;1.76;76.04;97547.22;4937483;28;106096;-61
2024/02/25 04:42:56;;;;;;;6.43;2.50;;;;;;;1.76;75.78;97555.03;4959703;28;107726;-61
2024/02/25 04:45:24;;;;;;;5.45;2.70;;;;;;;1.77;75.66;97552.28;4935658;28;102747;-62
2024/02/25 04:47:53;;;;;;;4.05;2.00;;;;;;;1.84;75.78;97552.53;4944898;28;102831;-62
2024/02/25 04:50:21;;;;;;;7.97;3.08;;;;;;;1.86;75.66;97552.41;4932476;28;103585;-62
2024/02/25 04:52:50;;;;;;;8.25;2.70;;;;;;;1.85;75.48;97558.56;4962743;28;103134;-62
2024/02/25 04:55:19;;;;;;;5.70;2.45;;;;;;;1.82;75.54;97551.84;4958261;28;102603;-62
2024/02/25 04:57:48;;;;;;;5.30;3.08;;;;;;;1.74;75.49;97552.56;4953855;28;102998;-62
2024/02/25 05:00:16;;;;;;;7.35;3.70;;;;;;;1.63;75.55;97550.13;4939066;28;105504;-62
2024/02/25 05:02:43;;;;;;;8.65;2.95;;;;;;;1.47;75.93;97554.09;4973153;28;103278;-62
2024/02/25 05:05:11;;;;;;;5.55;2.63;;;;;;;1.47;76.47;97548.88;4954331;28;103546;-62
2024/02/25 05:07:39;;;;;;;7.35;3.03;;;;;;;1.22;77.21;97549.44;4953417;28;102725;-62
2024/02/25 05:10:08;;;;;;;14.15;3.40;;;;;;;1.30;77.77;97544.38;4959178;28;103198;-62
2024/02/25 05:12:38;;;;;;;6.82;3.17;;;;;;;1.12;78.20;97549.44;4936285;28;105444;-62
2024/02/25 05:15:07;;;;;;;4.85;2.70;;;;;;;1.35;77.59;97544.78;4936080;28;102611;-62
2024/02/25 05:17:39;;;;;;;5.47;2.55;;;;;;;1.34;77.15;97553.56;4952168;28;102664;-62
2024/02/25 05:20:10;;;;;;;7.20;3.17;;;;;;;1.37;76.79;97555.09;4956820;28;103302;-62
2024/02/25 05:22:38;;;;;;;6.22;2.80;;;;;;;1.43;76.68;97555.34;4951913;28;103532;-62
2024/02/25 05:25:07;;;;;;;5.38;2.80;;;;;;;1.54;76.15;97556.16;4941034;28;102652;-62
2024/02/25 05:27:37;;;;;;;5.40;2.70;;;;;;;1.56;75.93;97555.06;4939649;28;102843;-63
2024/02/25 05:30:07;;;;;;;4.60;2.42;;;;;;;1.59;76.03;97553.97;4956595;28;103372;-63
2024/02/25 05:32:36;;;;;;;5.65;2.53;;;;;;;1.62;75.62;97558.91;4938524;28;106635;-63
2024/02/25 05:35:06;;;;;;;7.03;3.90;;;;;;;1.52;75.90;97552.88;4937893;28;102622;-63
2024/02/25 05:37:35;;;;;;;7.55;3.10;;;;;;;1.52;76.56;97547.63;4959795;28;102743;-63
2024/02/25 05:40:04;;;;;;;8.32;3.38;;;;;;;1.49;76.02;97551.34;4940265;28;103646;-62
2024/02/25 05:42:34;;;;;;;4.45;2.17;;;;;;;1.60;75.87;97553.81;4967885;28;103333;-63
2024/02/25 05:45:07;;;;;;;7.03;2.67;;;;;;;1.61;75.73;97549.41;4951108;28;102676;-64
2024/02/25 05:47:35;;;;;;;3.92;2.60;;;;;;;1.60;76.02;97553.81;4953356;28;103240;-63
2024/02/25 05:50:03;;;;;;;9.57;2.63;;;;;;;1.63;75.63;97560.56;4935080;28;103636;-63
2024/02/25 05:52:34;;;;;;;3.85;2.10;;;;;;;1.68;75.88;97557.50;4959511;28;103202;-63
2024/02/25 05:55:02;;;;;;;3.70;2.00;;;;;;;1.66;75.23;97555.03;4956737;28;103607;-63
2024/02/25 05:57:31;;;;;;;5.03;2.17;;;;;;;1.68;75.27;97555.75;4951349;28;102705;-63
2024/02/25 06:00:01;;;;;;;3.78;2.30;;;;;;;1.75;75.56;97566.44;4956006;28;103435;-63
2024/02/25 06:02:44;;;;;;;6.40;3.67;;;;;;;1.74;75.47;97565.63;4949330;28;103616;-63
2024/02/25 06:05:14;;;;;;;4.63;2.45;;;;;;;1.72;75.42;97566.72;4940000;28;102724;-63
2024/02/25 06:07:42;;;;;;;6.15;2.72;;;;;;;1.41;74.87;97567.69;4936879;28;102740;-63
2024/02/25 06:10:10;;;;;;;5.60;2.70;;;;;;;0.79;77.55;97570.53;4948205;28;103557;-63
2024/02/25 06:12:38;;;;;;;5.32;2.63;;;;;;;1.07;77.84;97570.72;4955728;28;103339;-62
2024/02/25 06:15:11;;;;;;;4.28;1.92;;;;;;;1.14;76.68;97564.00;4938688;28;102915;-64
2024/02/25 06:17:41;;;;;;;4.65;2.60;;;;;;;1.25;76.48;97557.00;4942883;28;102845;-64
2024/02/25 06:20:11;;;;;;;4.32;2.35;;;;;;;1.25;75.55;97562.22;4939655;28;105592;-63
2024/02/25 06:22:40;;;;;;;9.38;2.85;;;;;;;0.99;75.75;97568.78;4958547;28;103948;-63
2024/02/25 06:25:09;;;;;;;6.03;2.42;;;;;;;0.96;76.59;97563.03;4927325;28;103119;-63
2024/02/25 06:27:39;;;;;;;3.72;2.20;;;;;;;1.08;76.38;97564.53;4959336;28;103980;-63
2024/02/25 06:30:08;;;;;;;4.63;2.30;;;;;;;0.81;77.01;97560.81;4952959;28;103236;-63
2024/02/25 06:32:40;;;;;;;5.18;2.78;;;;;;;0.79;77.79;97573.13;4938589;28;103688;-63
2024/02/25 06:35:09;;;;;;;5.32;2.90;;;;;;;0.96;77.63;97568.25;4953198;28;102588;-63
2024/02/25 06:37:37;;;;;;;5.95;2.70;;;;;;;0.81;77.40;97580.81;4962908;28;102617;-63
2024/02/25 06:40:06;;;;;;;6.57;3.03;;;;;;;0.76;78.10;97575.19;4954233;28;103275;-63
2024/02/25 06:42:34;;;;;;;4.78;2.83;;;;;;;0.91;78.41;97583.47;4960246;28;103188;-63
2024/02/25 06:45:02;;;;;;;4.85;2.90;;;;;;;1.16;78.65;97582.13;4947574;28;102882;-63
2024/02/25 06:47:30;;;;;;;4.72;2.75;;;;;;;1.34;77.92;97582.28;4961597;28;104178;-63
2024/02/25 06:50:02;;;;;;;4.55;2.40;;;;;;;1.62;77.00;97585.00;4940518;28;106308;-63
2024/02/25 06:52:31;;;;;;;4.93;2.05;;;;;;;1.77;76.15;97583.63;4960978;28;103119;-62
2024/02/25 06:55:01;;;;;;;4.40;2.30;;;;;;;1.88;76.33;97589.66;4938695;28;102638;-63
2024/02/25 06:57:29;;;;;;;4.53;2.13;;;;;;;2.02;75.66;97591.81;4954228;28;102617;-63
2024/02/25 06:59:58;;;;;;;6.30;2.10;;;;;;;2.14;74.94;97590.66;4964519;28;103224;-63
2024/02/25 07:02:26;;;;;;;3.88;2.03;;;;;;;2.30;74.83;97600.50;4953090;28;106306;-63
2024/02/25 07:04:54;;;;;;;4.28;2.50;;;;;;;2.45;74.55;97597.44;4935587;28;103128;-63
2024/02/25 07:07:23;;;;;;;4.72;2.22;;;;;;;2.56;74.13;97605.09;4964254;28;103588;-63
2024/02/25 07:09:57;;;;;;;5.38;2.65;;;;;;;2.64;74.13;97607.00;4953147;28;108062;-62
2024/02/25 07:12:28;;;;;;;4.25;2.33;;;;;;;2.76;73.52;97602.41;4962310;28;103210;-62
2024/02/25 07:14:56;;;;;;;4.38;2.40;;;;;;;3.02;73.23;97605.16;4960888;28;102691;-62
2024/02/25 07:17:24;;;;;;;6.15;2.75;;;;;;;3.12;72.81;97607.72;4964805;28;102639;-62
2024/02/25 07:19:52;;;;;;;6.35;2.33;;;;;;;3.35;72.63;97604.66;4930442;28;103399;-62
2024/02/25 07:22:20;;;;;;;5.95;2.55;;;;;;;3.18;72.89;97606.28;4947595;28;103265;-63
2024/02/25 07:24:50;;;;;;;4.68;2.55;;;;;;;3.24;73.03;97610.94;4942728;28;102762;-62
2024/02/25 07:27:18;;;;;;;5.13;2.80;;;;;;;3.19;72.30;97611.38;4933486;28;103654;-63
2024/02/25 07:29:46;;;;;;;5.68;3.00;;;;;;;3.10;72.93;97613.06;4916591;28;103439;-63
2024/02/25 07:32:14;;;;;;;5.45;2.70;;;;;;;3.25;73.14;97612.56;4918560;28;106127;-63
2024/02/25 07:34:42;;;;;;;8.65;3.70;;;;;;;3.28;72.50;97604.44;4955699;28;102650;-62
2024/02/25 07:37:21;;;;;;;5.15;3.00;;;;;;;3.40;71.95;97608.47;4964115;28;103076;-62
2024/02/25 07:39:55;;;;;;;4.78;2.35;;;;;;;3.55;71.53;97610.56;4964081;28;106615;-62
2024/02/25 07:42:23;;;;;;;6.63;2.67;;;;;;;3.62;71.59;97607.19;4951230;28;103492;-62
2024/02/25 07:44:51;;;;;;;5.10;2.40;;;;;;;3.72;71.53;97604.50;4936961;28;102673;-63
2024/02/25 07:47:19;;;;;;;5.35;2.33;;;;;;;3.72;71.74;97596.66;4957933;28;102707;-63
2024/02/25 07:49:47;;;;;;;5.57;2.47;;;;;;;3.84;71.49;97606.88;4956524;28;103271;-64
2024/02/25 07:52:15;;;;;;;6.22;2.38;;;;;;;3.96;71.10;97603.84;4956848;28;103531;-63
2024/02/25 07:54:45;;;;;;;3.60;1.88;;;;;;;4.09;70.60;97608.69;4953116;28;113405;-63
2024/02/25 07:57:17;;;;;;;5.78;2.10;;;;;;;4.20;70.18;97604.19;4955941;28;102620;-63
2024/02/25 07:59:45;;;;;;;4.47;2.05;;;;;;;4.37;70.14;97605.91;4935731;28;103441;-62
2024/02/25 08:02:13;;;;;;;4.72;2.20;;;;;;;4.50;69.37;97604.69;4951388;28;103328;-62
2024/02/25 08:04:43;;;;;;;3.70;2.03;;;;;;;4.51;68.89;97607.13;4929972;28;103238;-63
2024/02/25 08:07:11;;;;;;;5.13;2.55;;;;;;;4.43;69.11;97599.22;4959960;28;104176;-62
2024/02/25 08:09:39;;;;;;;4.68;2.15;;;;;;;4.43;68.98;97596.63;4953362;28;103430;-63
2024/02/25 08:12:08;;;;;;;4.18;2.03;;;;;;;4.61;69.46;97601.75;4952891;28;103280;-62
2024/02/25 08:14:37;;;;;;;4.28;2.22;;;;;;;4.68;69.05;97591.44;4959878;28;103714;-62
2024/02/25 08:17:05;;;;;;;5.63;2.50;;;;;;;4.71;68.77;97597.22;4960325;28;102977;-62
2024/02/25 08:19:33;;;;;;;5.72;2.13;;;;;;;4.81;69.07;97592.66;4957526;28;105327;-62
2024/02/25 08:22:02;;;;;;;4.88;2.25;;;;;;;5.11;68.14;97594.91;4957251;28;103175;-62
2024/02/25 08:24:30;;;;;;;4.90;2.00;;;;;;;5.41;67.18;97592.63;4951981;28;102896;-62
2024/02/25 08:26:58;;;;;;;4.93;2.25;;;;;;;5.50;66.44;97596.09;4946466;28;103153;-62
2024/02/25 08:29:28;;;;;;;5.03;2.00;;;;;;;5.47;65.03;97584.91;4937984;28;103211;-62
2024/02/25 08:31:57;;;;;;;3.55;1.77;;;;;;;5.50;64.79;97590.84;4950107;28;102879;-62
2024/02/25 08:34:26;;;;;;;3.58;1.60;;;;;;;5.42;64.74;97578.53;4949916;28;104097;-62
2024/02/25 08:36:54;;;;;;;2.45;1.42;;;;;;;5.37;64.81;97583.44;4947842;28;102983;-63
2024/02/25 08:39:23;;;;;;;3.38;1.65;;;;;;;5.45;64.73;97588.69;4942362;28;103356;-62
2024/02/25 08:41:54;;;;;;;2.80;1.30;;;;;;;5.64;63.90;97587.56;4949359;28;103917;-63
2024/02/25 08:44:24;;;;;;;6.47;2.00;;;;;;;5.64;63.03;97587.56;4947559;28;102888;-63
2024/02/25 08:46:52;;;;;;;5.95;1.88;;;;;;;5.62;63.04;97579.84;4947407;28;102819;-62
2024/02/25 08:49:57;;;;;;;4.97;1.55;;;;;;;5.61;61.98;97585.28;4932351;28;103529;-63
2024/02/25 08:53:05;;;;;;;4.75;1.55;;;;;;;5.71;61.89;97588.56;4894914;28;108090;-61
2024/02/25 08:59:36;;;;;;;3.35;1.30;;;;;;;6.31;61.22;97578.66;4941036;28;103896;-62
2024/02/25 09:02:09;;;;;;;4.65;1.23;;;;;;;6.38;60.80;97579.63;4946684;28;106003;-63
2024/02/25 09:04:39;;;;;;;2.70;1.33;;;;;;;6.31;60.89;97570.75;4932973;28;103865;-63
2024/02/25 09:07:07;;;;;;;2.55;1.50;;;;;;;6.20;61.18;97579.84;4953354;28;103085;-63
2024/02/25 09:09:36;;;;;;;3.28;1.15;;;;;;;6.44;61.48;97567.59;4944839;28;103089;-61
2024/02/25 09:12:04;;;;;;;3.35;1.15;;;;;;;6.37;59.13;97572.72;4944196;28;102851;-62
2024/02/25 09:14:33;;;;;;;2.55;1.00;;;;;;;6.85;60.00;97563.97;4949205;28;105149;-62
2024/02/25 09:17:01;;;;;;;2.22;1.30;;;;;;;6.67;59.40;97566.84;4944840;28;103084;-63
2024/02/25 09:19:29;;;;;;;3.75;1.35;;;;;;;6.58;59.37;97566.09;4954801;28;102665;-63
2024/02/25 09:21:59;;;;;;;4.97;1.48;;;;;;;6.42;59.01;97566.94;4952000;28;103447;-64
2024/02/25 09:24:27;;;;;;;2.80;1.13;;;;;;;6.79;60.08;97560.22;4950139;28;103383;-62
2024/02/25 09:26:55;;;;;;;2.78;1.17;;;;;;;7.01;59.93;97561.28;4956790;28;102854;-61
2024/02/25 09:29:23;;;;;;;4.32;1.30;;;;;;;6.86;58.14;97555.09;4950599;28;102765;-61
2024/02/25 09:31:56;;;;;;;2.00;1.13;;;;;;;7.00;58.19;97562.25;4949782;28;103279;-61
2024/02/25 09:34:24;;;;;;;3.95;1.08;;;;;;;6.94;57.83;97569.03;4941446;28;103256;-64
2024/02/25 09:36:52;;;;;;;2.40;1.27;;;;;;;6.94;57.75;97562.94;4933320;28;103306;-63
2024/02/25 09:39:22;;;;;;;2.80;1.13;;;;;;;7.09;57.17;97557.78;4934238;28;106228;-62
2024/02/25 09:41:52;;;;;;;2.22;1.08;;;;;;;7.39;58.27;97553.47;4940115;28;102928;-62
2024/02/25 09:44:23;;;;;;;2.45;1.00;;;;;;;7.84;57.29;97547.50;4946182;28;103383;-62
2024/02/25 09:46:52;;;;;;;2.22;0.98;;;;;;;7.88;55.14;97543.50;4942869;28;102774;-62
2024/02/25 09:49:20;;;;;;;2.20;0.98;;;;;;;7.91;55.98;97546.59;4951189;28;102717;-61
2024/02/25 09:51:52;;;;;;;2.33;1.10;;;;;;;8.00;54.64;97547.31;4921017;28;103552;-61
2024/02/25 09:54:22;;;;;;;1.20;0.98;;;;;;;7.80;55.17;97541.75;4936069;28;103361;-61
2024/02/25 09:56:50;;;;;;;2.22;0.93;;;;;;;8.23;55.90;97541.19;4945564;28;102645;-61
2024/02/25 09:59:19;;;;;;;2.45;1.10;;;;;;;8.24;53.33;97543.63;4929652;28;103227;-63
2024/02/25 10:01:48;;;;;;;2.15;1.17;;;;;;;7.97;53.27;97542.44;4950462;28;103387;-63
2024/02/25 10:04:18;;;;;;;1.52;0.75;;;;;;;8.36;54.54;97525.53;4933599;28;104532;-63
2024/02/25 10:06:48;;;;;;;1.83;0.93;;;;;;;8.36;54.20;97525.53;4926719;28;103075;-63
2024/02/25 10:09:30;;;;;;;1.73;0.70;;;;;;;8.29;52.06;97516.69;4946779;28;102707;-63
2024/02/25 10:11:58;;;;;;;4.85;0.70;;;;;;;8.68;52.41;97523.50;4950841;28;103875;-63
2024/02/25 10:14:27;;;;;;;1.67;0.70;;;;;;;8.48;50.71;97520.63;4933355;28;104291;-63
2024/02/25 10:17:02;;;;;;;1.23;0.65;;;;;;;8.90;50.62;97519.09;4941735;28;103523;-62
2024/02/25 10:19:31;;;;;;;2.47;0.68;;;;;;;9.38;50.69;97510.63;4964814;28;102723;-62
2024/02/25 10:22:07;;;;;;;1.90;0.80;;;;;;;9.79;49.02;97519.72;4939774;28;103537;-62
2024/02/25 10:24:37;;;;;;;1.75;0.85;;;;;;;9.73;48.62;97505.44;4958897;28;104045;-63
2024/02/25 10:27:09;;;;;;;1.83;0.90;;;;;;;9.54;48.03;97500.81;4941008;28;103165;-62
2024/02/25 10:29:51;;;;;;;1.42;0.80;;;;;;;9.62;48.00;97500.66;4940959;28;103019;-63
2024/02/25 10:32:25;;;;;;;0.70;0.55;;;;;;;9.31;49.03;97491.25;4942489;28;103228;-62
2024/02/25 10:34:55;;;;;;;1.00;0.68;;;;;;;9.20;48.02;97497.88;4923281;28;104360;-62
2024/02/25 10:37:24;;;;;;;1.05;0.75;;;;;;;9.76;47.82;97491.81;4936304;28;102727;-62
2024/02/25 10:39:56;;;;;;;1.20;0.82;;;;;;;10.33;47.47;97488.31;4938145;28;102792;-62
2024/02/25 10:42:27;;;;;;;1.35;0.80;;;;;;;10.22;48.16;97481.75;4950347;28;103786;-62
2024/02/25 10:44:57;;;;;;;1.33;0.77;;;;;;;10.53;47.05;97473.38;4942977;28;103254;-62
2024/02/25 10:47:27;;;;;;;3.15;0.60;;;;;;;10.53;46.31;97464.59;4925024;28;103974;-63
2024/02/25 10:49:56;;;;;;;0.45;0.40;;;;;;;10.57;46.41;97457.88;4939357;28;103152;-64
2024/02/25 10:52:27;;;;;;;2.70;0.60;;;;;;;10.88;46.26;97469.78;4950369;28;103973;-64
2024/02/25 10:54:58;;;;;;;0.32;0.32;;;;;;;10.77;45.19;97452.66;4949371;28;103214;-64
2024/02/25 10:57:27;;;;;;;0.88;0.70;;;;;;;10.77;45.21;97452.66;4950197;28;103239;-64
2024/02/25 10:59:56;;;;;;;0.60;0.43;;;;;;;11.03;45.09;97456.38;4943071;28;103171;-64
2024/02/25 11:02:26;;;;;;;1.35;0.50;;;;;;;10.92;44.45;97455.94;4936608;28;106250;-66
2024/02/25 11:04:55;;;;;;;0.98;0.50;;;;;;;11.30;44.76;97446.59;4958167;28;103166;-65
2024/02/25 11:07:23;;;;;;;1.73;0.60;;;;;;;11.44;43.54;97458.84;4955190;28;103205;-65
2024/02/25 11:09:51;;;;;;;0.90;0.50;;;;;;;11.71;44.19;97458.84;4944269;28;103184;-67
2024/02/25 11:12:22;;;;;;;1.15;0.50;;;;;;;11.80;41.89;97442.72;4940685;28;103987;-67
2024/02/25 11:14:54;;;;;;;0.45;0.30;;;;;;;11.00;43.72;97446.19;4939005;28;103442;-66
2024/02/25 11:17:27;;;;;;;0.63;0.40;;;;;;;11.48;43.35;97439.91;4921496;28;103225;-65
2024/02/25 11:20:02;;;;;;;0.80;0.40;;;;;;;11.53;42.56;97430.28;4926224;28;102925;-65
2024/02/25 11:22:49;;;;;;;0.25;0.25;;;;;;;11.78;40.88;97438.41;4948137;28;103269;-64
2024/02/25 11:25:45;;;;;;;0.30;0.30;;;;;;;12.33;41.16;97424.00;4948005;28;103273;-65
2024/02/25 11:28:27;;;;;;;0.90;0.32;;;;;;;12.83;40.06;97417.22;4951816;28;102814;-65
2024/02/25 11:30:56;;;;;;;1.45;0.70;;;;;;;12.47;40.26;97418.63;4949370;28;103834;-65
2024/02/25 11:33:41;;;;;;;1.83;0.70;;;;;;;12.23;40.99;97415.69;4944689;28;103302;-64
2024/02/25 11:36:12;;;;;;;2.55;0.60;;;;;;;12.43;40.99;97411.09;4918293;28;103478;-64
2024/02/25 11:38:43;;;;;;;0.80;0.40;;;;;;;12.81;40.43;97406.00;4934302;28;103240;-64
2024/02/25 11:41:12;;;;;;;1.92;0.63;;;;;;;12.89;40.18;97395.09;4951988;28;103253;-65
2024/02/25 11:43:42;;;;;;;0.82;0.40;;;;;;;12.82;40.33;97395.13;4949596;28;103702;-65
2024/02/25 11:46:11;;;;;;;2.08;0.75;;;;;;;12.67;40.65;97397.28;4949477;28;104255;-64
2024/02/25 11:48:39;;;;;;;0.70;0.50;;;;;;;12.75;40.10;97392.53;4943686;28;102954;-67